Terminal Aerodrome Forecast
Issued by NWS

Home | Current Version | Previous Version | Text Only | Print | Product List | Glossary On
Versions: 1 2 3 4 5 6 7 8 9 10 11 12 13 14 15 16 17 18 19 20 21 22 23 24 25 26
000
FTUS45 KBOU 232059 AAA
TAFBJC
TAF AMD
KBJC 232059Z 2321/2418 02007KT P6SM SCT010 OVC020
      TEMPO 2321/2323 -SHRA OVC010
     FM232300 05008KT 3SM -RA BR BKN004 OVC008
     FM240100 36007KT P6SM VCSH SCT006 BKN012
     FM240300 02008KT 5SM -RA BR BKN004 OVC008
     FM240900 33007KT P6SM VCFG SCT003 BKN010
     FM241600 05006KT P6SM VCSH SCT016 BKN028=

USA.gov is the U.S. government's official web portal to all federal, state and local government web resources and services.